createdAt,value
2017-05-14T00:00:08.408Z,21.96
2017-05-14T00:00:36.606Z,21.92
2017-05-14T00:01:04.738Z,21.94
2017-05-14T00:01:33.027Z,21.97
2017-05-14T00:02:01.115Z,22
2017-05-14T00:02:29.369Z,21.89
2017-05-14T00:02:57.607Z,21.94
2017-05-14T00:03:25.781Z,21.99
2017-05-14T00:03:53.851Z,21.97
2017-05-14T00:04:22.097Z,21.94
2017-05-14T00:04:50.418Z,21.89
2017-05-14T00:05:18.680Z,21.82
2017-05-14T00:05:46.853Z,21.85
2017-05-14T00:06:15.107Z,21.85
2017-05-14T00:06:43.384Z,21.86
2017-05-14T00:07:11.554Z,21.83
2017-05-14T00:07:39.610Z,21.93
2017-05-14T00:08:07.898Z,21.9
2017-05-14T00:08:36.012Z,21.9
2017-05-14T00:09:04.167Z,21.86
2017-05-14T00:09:32.359Z,21.85
2017-05-14T00:10:00.563Z,21.86
2017-05-14T00:10:28.734Z,21.83
2017-05-14T00:10:56.878Z,21.83
2017-05-14T00:11:25.321Z,21.85
2017-05-14T00:11:53.375Z,21.85
2017-05-14T00:12:21.571Z,21.82
2017-05-14T00:12:49.818Z,21.83
2017-05-14T00:13:17.884Z,21.92
2017-05-14T00:13:45.875Z,21.83
2017-05-14T00:14:14.167Z,21.85
2017-05-14T00:14:42.426Z,21.92
2017-05-14T00:15:10.608Z,21.86
2017-05-14T00:15:38.700Z,21.78
2017-05-14T00:16:07.309Z,21.82
2017-05-14T00:16:35.579Z,21.89
2017-05-14T00:17:03.803Z,21.86
2017-05-14T00:17:31.983Z,21.77
2017-05-14T00:18:00.215Z,21.78
2017-05-14T00:18:28.449Z,21.8
2017-05-14T00:18:56.697Z,21.86
2017-05-14T00:19:24.952Z,21.85
2017-05-14T00:19:53.081Z,21.82
2017-05-14T00:20:21.166Z,21.82
2017-05-14T00:20:49.395Z,21.77
2017-05-14T00:21:17.938Z,21.85
2017-05-14T00:21:46.128Z,21.9
2017-05-14T00:22:14.306Z,21.8
2017-05-14T00:22:42.476Z,21.9
2017-05-14T00:23:10.637Z,21.85
2017-05-14T00:23:38.918Z,21.85
2017-05-14T00:24:07.175Z,21.8
2017-05-14T00:24:35.295Z,21.82
2017-05-14T00:25:03.413Z,21.7
2017-05-14T00:25:31.599Z,21.74
2017-05-14T00:25:59.777Z,21.73
2017-05-14T00:26:28.063Z,21.76
2017-05-14T00:26:56.160Z,21.76
2017-05-14T00:27:24.345Z,21.73
2017-05-14T00:27:52.423Z,21.7
2017-05-14T00:28:20.676Z,21.77
2017-05-14T00:28:48.881Z,21.71
2017-05-14T00:29:17.119Z,21.76
2017-05-14T00:29:45.263Z,21.74
2017-05-14T00:30:13.485Z,21.67
2017-05-14T00:30:41.638Z,21.68
2017-05-14T00:31:09.761Z,21.7
2017-05-14T00:31:38.228Z,21.62
2017-05-14T00:32:06.420Z,21.59
2017-05-14T00:32:34.489Z,21.66
2017-05-14T00:33:02.777Z,21.61
2017-05-14T00:33:30.971Z,21.59
2017-05-14T00:33:59.252Z,21.59
2017-05-14T00:34:27.350Z,21.59
2017-05-14T00:34:55.674Z,21.61
2017-05-14T00:35:23.742Z,21.67
2017-05-14T00:35:51.922Z,21.53
2017-05-14T00:36:19.975Z,21.61
2017-05-14T00:36:48.253Z,21.49
2017-05-14T00:37:16.503Z,21.61
2017-05-14T00:37:44.609Z,21.64
2017-05-14T00:38:12.826Z,21.62
2017-05-14T00:38:40.964Z,21.64
2017-05-14T00:39:09.230Z,21.64
2017-05-14T00:39:37.396Z,21.61
2017-05-14T00:40:05.566Z,21.53
2017-05-14T00:40:33.737Z,21.58
2017-05-14T00:41:01.845Z,21.58
2017-05-14T00:41:30.331Z,21.56
2017-05-14T00:41:58.389Z,21.53
2017-05-14T00:42:26.654Z,21.49
2017-05-14T00:42:54.887Z,21.46
2017-05-14T00:43:23.188Z,21.48
2017-05-14T00:43:51.188Z,21.48
2017-05-14T00:44:19.367Z,21.48
2017-05-14T00:44:47.621Z,21.38
2017-05-14T00:45:15.710Z,21.4
2017-05-14T00:45:43.956Z,21.43
2017-05-14T00:46:12.133Z,21.46
2017-05-14T00:46:40.405Z,21.41
2017-05-14T00:47:08.682Z,21.46
2017-05-14T00:47:36.748Z,21.46
2017-05-14T00:48:05.034Z,21.51
2017-05-14T00:48:33.265Z,21.43
2017-05-14T00:49:01.449Z,21.48
2017-05-14T00:49:29.810Z,21.52
2017-05-14T00:49:57.988Z,21.51
2017-05-14T00:50:26.172Z,21.46
2017-05-14T00:50:54.423Z,21.45
2017-05-14T00:51:22.611Z,21.41
2017-05-14T00:51:50.924Z,21.43
2017-05-14T00:52:19.007Z,21.43
2017-05-14T00:52:47.278Z,21.48
2017-05-14T00:53:15.388Z,21.43
2017-05-14T00:53:43.575Z,21.38
2017-05-14T00:54:11.740Z,21.49
2017-05-14T00:54:39.733Z,21.43
2017-05-14T00:55:08.012Z,21.43
2017-05-14T00:55:36.055Z,21.43
2017-05-14T00:56:04.306Z,21.38
2017-05-14T00:56:32.383Z,21.43
2017-05-14T00:57:00.577Z,21.4
2017-05-14T00:57:28.585Z,21.41
2017-05-14T00:57:56.745Z,21.45
2017-05-14T00:58:24.931Z,21.41
2017-05-14T00:58:53.193Z,21.41
2017-05-14T00:59:21.472Z,21.41
2017-05-14T00:59:49.628Z,21.43
2017-05-14T01:00:17.855Z,21.41
2017-05-14T01:00:46.051Z,21.43
2017-05-14T01:01:14.129Z,21.37
2017-05-14T01:01:42.383Z,21.38
2017-05-14T01:02:10.750Z,21.38
2017-05-14T01:02:38.863Z,21.45
2017-05-14T01:03:07.099Z,21.37
2017-05-14T01:03:35.263Z,21.38
2017-05-14T01:04:03.517Z,21.28
2017-05-14T01:04:31.854Z,21.37
2017-05-14T01:05:00.097Z,21.41
2017-05-14T01:05:28.255Z,21.37
2017-05-14T01:05:56.377Z,21.4
2017-05-14T01:06:24.580Z,21.34
2017-05-14T01:06:52.838Z,21.38
2017-05-14T01:07:21.113Z,21.36
2017-05-14T01:07:49.296Z,21.38
2017-05-14T01:08:17.551Z,21.31
2017-05-14T01:08:45.785Z,21.4
2017-05-14T01:09:13.973Z,21.38
2017-05-14T01:09:42.172Z,21.48
2017-05-14T01:10:10.370Z,21.33
2017-05-14T01:10:38.536Z,21.38
2017-05-14T01:11:06.688Z,21.37
2017-05-14T01:11:34.931Z,21.51
2017-05-14T01:12:03.197Z,21.49
2017-05-14T01:12:31.201Z,21.43
2017-05-14T01:12:59.286Z,21.45
2017-05-14T01:13:27.353Z,21.41
2017-05-14T01:13:55.638Z,21.45
2017-05-14T01:14:23.710Z,21.49
2017-05-14T01:14:51.823Z,21.41
2017-05-14T01:15:20.050Z,21.46
2017-05-14T01:15:48.114Z,21.41
2017-05-14T01:16:16.400Z,21.45
2017-05-14T01:16:44.593Z,21.46
2017-05-14T01:17:12.974Z,21.43
2017-05-14T01:17:41.159Z,21.43
2017-05-14T01:18:09.410Z,21.48
2017-05-14T01:18:37.671Z,21.43
2017-05-14T01:19:05.802Z,21.45
2017-05-14T01:19:34.155Z,21.46
2017-05-14T01:20:02.502Z,21.51
2017-05-14T01:20:30.591Z,21.43
2017-05-14T01:20:58.866Z,21.46
2017-05-14T01:21:27.090Z,21.46
2017-05-14T01:21:55.443Z,21.49
2017-05-14T01:22:23.893Z,21.51
2017-05-14T01:22:51.988Z,21.49
2017-05-14T01:23:20.301Z,21.45
2017-05-14T01:23:48.527Z,21.48
2017-05-14T01:24:16.561Z,21.49
2017-05-14T01:24:44.782Z,21.49
2017-05-14T01:25:12.930Z,21.41
2017-05-14T01:25:41.162Z,21.45
2017-05-14T01:26:09.349Z,21.41
2017-05-14T01:26:37.643Z,21.4
2017-05-14T01:27:05.921Z,21.38
2017-05-14T01:27:34.305Z,21.45
2017-05-14T01:28:02.784Z,21.37
2017-05-14T01:28:31.058Z,21.41
2017-05-14T01:28:59.244Z,21.36
2017-05-14T01:29:27.506Z,21.37
2017-05-14T01:29:55.769Z,21.3
2017-05-14T01:30:23.860Z,21.4
2017-05-14T01:30:52.030Z,21.34
2017-05-14T01:31:20.197Z,21.38
2017-05-14T01:31:48.411Z,21.38
2017-05-14T01:32:17.013Z,21.34
2017-05-14T01:32:45.277Z,21.36
2017-05-14T01:33:13.323Z,21.34
2017-05-14T01:33:41.599Z,21.27
2017-05-14T01:34:09.846Z,21.28
2017-05-14T01:34:38.067Z,21.36
2017-05-14T01:35:06.395Z,21.25
2017-05-14T01:35:34.476Z,21.3
2017-05-14T01:36:02.792Z,21.31
2017-05-14T01:36:30.929Z,21.3
2017-05-14T01:36:58.934Z,21.34
2017-05-14T01:37:27.196Z,21.33
2017-05-14T01:37:55.347Z,21.37
2017-05-14T01:38:23.630Z,21.27
2017-05-14T01:38:51.811Z,21.33
2017-05-14T01:39:20.026Z,21.4
2017-05-14T01:39:48.293Z,21.3
2017-05-14T01:40:16.465Z,21.3
2017-05-14T01:40:44.654Z,21.28
2017-05-14T01:41:12.787Z,21.3
2017-05-14T01:41:40.979Z,21.28
2017-05-14T01:42:09.188Z,21.22
2017-05-14T01:42:37.475Z,21.23
2017-05-14T01:43:05.750Z,21.31
2017-05-14T01:43:33.835Z,21.27
2017-05-14T01:44:02.127Z,21.28
2017-05-14T01:44:30.374Z,21.28
2017-05-14T01:44:58.459Z,21.21
2017-05-14T01:45:26.573Z,21.22
2017-05-14T01:45:54.853Z,21.12
2017-05-14T01:46:23.134Z,21.16
2017-05-14T01:46:51.558Z,21.15
2017-05-14T01:47:19.781Z,21.13
2017-05-14T01:47:48.038Z,21.11
2017-05-14T01:48:16.247Z,21.15
2017-05-14T01:48:44.343Z,21.16
2017-05-14T01:49:13.391Z,21.25
2017-05-14T01:49:41.652Z,21.13
2017-05-14T01:50:09.916Z,21.28
2017-05-14T01:50:38.115Z,21.28
2017-05-14T01:51:06.347Z,21.16
2017-05-14T01:51:34.429Z,21.12
2017-05-14T01:52:02.628Z,21.12
2017-05-14T01:52:30.875Z,21.15
2017-05-14T01:52:58.981Z,21.16
2017-05-14T01:53:27.132Z,21.15
2017-05-14T01:53:55.372Z,21.13
2017-05-14T01:54:23.643Z,21.16
2017-05-14T01:54:51.942Z,21.12
2017-05-14T01:55:19.937Z,21.11
2017-05-14T01:55:48.066Z,21.12
2017-05-14T01:56:16.253Z,21.09
2017-05-14T01:56:44.429Z,21.09
2017-05-14T01:57:12.636Z,21.09
2017-05-14T01:57:40.895Z,20.98
2017-05-14T01:58:09.212Z,20.98
2017-05-14T01:58:37.466Z,21
2017-05-14T01:59:05.648Z,21.08
2017-05-14T01:59:33.801Z,21.03
2017-05-14T02:00:01.960Z,21.08
2017-05-14T02:00:30.182Z,21.09
2017-05-14T02:00:58.522Z,21.11
2017-05-14T02:01:26.836Z,21.16
2017-05-14T02:01:55.090Z,21.12
2017-05-14T02:02:23.326Z,21.08
2017-05-14T02:02:51.652Z,21.12
2017-05-14T02:03:19.793Z,21.09
2017-05-14T02:03:48.087Z,21.04
2017-05-14T02:04:16.293Z,20.98
2017-05-14T02:04:44.508Z,20.96
2017-05-14T02:05:12.551Z,21.01
2017-05-14T02:05:40.839Z,20.98
2017-05-14T02:06:09.139Z,21.06
2017-05-14T02:06:37.377Z,21.01
2017-05-14T02:07:05.534Z,21.09
2017-05-14T02:07:33.784Z,21
2017-05-14T02:08:01.974Z,21.04
2017-05-14T02:08:30.066Z,21.06
2017-05-14T02:08:58.268Z,21.03
2017-05-14T02:09:26.551Z,21.01
2017-05-14T02:09:54.788Z,21.04
2017-05-14T02:10:22.834Z,21.03
2017-05-14T02:10:51.201Z,20.93
2017-05-14T02:11:19.516Z,20.91
2017-05-14T02:11:47.804Z,21.01
2017-05-14T02:12:16.062Z,20.91
2017-05-14T02:12:44.381Z,20.93
2017-05-14T02:13:12.639Z,20.88
2017-05-14T02:13:40.876Z,20.91
2017-05-14T02:14:08.835Z,20.88
2017-05-14T02:14:37.021Z,20.91
2017-05-14T02:15:05.245Z,20.85
2017-05-14T02:15:33.406Z,20.9
2017-05-14T02:16:01.483Z,20.86
2017-05-14T02:16:29.724Z,20.79
2017-05-14T02:16:57.677Z,20.9
2017-05-14T02:17:25.677Z,20.83
2017-05-14T02:17:53.937Z,20.83
2017-05-14T02:18:22.289Z,20.79
2017-05-14T02:18:50.529Z,20.86
2017-05-14T02:19:18.834Z,20.83
2017-05-14T02:19:47.027Z,20.88
2017-05-14T02:20:15.257Z,20.86
2017-05-14T02:20:43.365Z,20.86
2017-05-14T02:21:11.679Z,20.78
2017-05-14T02:21:39.968Z,20.79
2017-05-14T02:22:08.209Z,20.82
2017-05-14T02:22:36.378Z,20.82
2017-05-14T02:23:04.649Z,20.78
2017-05-14T02:23:32.887Z,20.76
2017-05-14T02:24:01.187Z,20.75
2017-05-14T02:24:29.303Z,20.79
2017-05-14T02:24:57.388Z,20.71
2017-05-14T02:25:25.664Z,20.75
2017-05-14T02:25:53.830Z,20.66
2017-05-14T02:26:22.036Z,20.64
2017-05-14T02:26:50.049Z,20.64
2017-05-14T02:27:18.016Z,20.63
2017-05-14T02:27:46.213Z,20.53
2017-05-14T02:28:14.499Z,20.54
2017-05-14T02:28:42.744Z,20.58
2017-05-14T02:29:10.824Z,20.61
2017-05-14T02:29:39.076Z,20.6
2017-05-14T02:30:07.129Z,20.61
2017-05-14T02:30:35.345Z,20.66
2017-05-14T02:31:03.628Z,20.66
2017-05-14T02:31:31.907Z,20.56
2017-05-14T02:32:00.131Z,20.61
2017-05-14T02:32:28.437Z,20.66
2017-05-14T02:32:56.633Z,20.68
2017-05-14T02:33:24.904Z,20.6
2017-05-14T02:33:53.161Z,20.56
2017-05-14T02:34:21.317Z,20.61
2017-05-14T02:34:49.386Z,20.54
2017-05-14T02:35:17.710Z,20.57
2017-05-14T02:35:45.840Z,20.51
2017-05-14T02:36:14.125Z,20.58
2017-05-14T02:36:42.389Z,20.58
2017-05-14T02:37:10.476Z,20.58
2017-05-14T02:37:38.809Z,20.57
2017-05-14T02:38:07.032Z,20.57
2017-05-14T02:38:35.324Z,20.63
2017-05-14T02:39:03.464Z,20.64
2017-05-14T02:39:31.569Z,20.72
2017-05-14T02:39:59.630Z,20.71
2017-05-14T02:40:27.812Z,20.67
2017-05-14T02:40:55.951Z,20.68
2017-05-14T02:41:23.932Z,20.68
2017-05-14T02:41:52.085Z,20.78
2017-05-14T02:42:20.220Z,20.71
2017-05-14T02:42:48.532Z,20.74
2017-05-14T02:43:16.748Z,20.66
2017-05-14T02:43:45.081Z,20.79
2017-05-14T02:44:13.348Z,20.74
2017-05-14T02:44:41.634Z,20.78
2017-05-14T02:45:09.855Z,20.75
2017-05-14T02:45:38.197Z,20.71
2017-05-14T02:46:06.503Z,20.78
2017-05-14T02:46:34.618Z,20.74
2017-05-14T02:47:02.876Z,20.74
2017-05-14T02:47:31.139Z,20.71
2017-05-14T02:47:59.387Z,20.75
2017-05-14T02:48:27.704Z,20.72
2017-05-14T02:48:56.015Z,20.79
2017-05-14T02:49:24.318Z,20.79
2017-05-14T02:49:52.554Z,20.72
2017-05-14T02:50:20.638Z,20.75
2017-05-14T02:50:48.838Z,20.76
2017-05-14T02:51:16.862Z,20.67
2017-05-14T02:51:45.113Z,20.72
2017-05-14T02:52:13.362Z,20.71
2017-05-14T02:52:41.657Z,20.71
2017-05-14T02:53:09.663Z,20.71
2017-05-14T02:53:38.026Z,20.71
2017-05-14T02:54:06.128Z,20.71
2017-05-14T02:54:34.374Z,20.71
2017-05-14T02:55:02.447Z,20.66
2017-05-14T02:55:30.735Z,20.68
2017-05-14T02:55:58.834Z,20.67
2017-05-14T02:56:26.998Z,20.71
2017-05-14T02:56:55.172Z,20.71
2017-05-14T02:57:23.303Z,20.74
2017-05-14T02:57:51.291Z,20.71
2017-05-14T02:58:19.444Z,20.68
2017-05-14T02:58:47.744Z,20.72
2017-05-14T02:59:15.832Z,20.68
2017-05-14T02:59:44.072Z,20.64
2017-05-14T03:00:12.278Z,20.68
2017-05-14T03:00:40.261Z,20.63
2017-05-14T03:01:08.360Z,20.67
2017-05-14T03:01:36.511Z,20.6
2017-05-14T03:02:04.772Z,20.54
2017-05-14T03:02:32.818Z,20.57
2017-05-14T03:03:01.032Z,20.64
2017-05-14T03:03:29.214Z,20.58
2017-05-14T03:03:57.737Z,20.66
2017-05-14T03:04:25.938Z,20.6
2017-05-14T03:04:53.904Z,20.64
2017-05-14T03:05:22.050Z,20.61
2017-05-14T03:05:50.194Z,20.58
2017-05-14T03:06:18.314Z,20.57
2017-05-14T03:06:46.600Z,20.57
2017-05-14T03:07:14.561Z,20.6
2017-05-14T03:07:42.842Z,20.57
2017-05-14T03:08:10.946Z,20.57
2017-05-14T03:08:39.041Z,20.61
2017-05-14T03:09:07.314Z,20.57
2017-05-14T03:09:35.487Z,20.57
2017-05-14T03:10:03.790Z,20.6
2017-05-14T03:10:32.085Z,20.61
2017-05-14T03:11:00.238Z,20.64
2017-05-14T03:11:28.506Z,20.6
2017-05-14T03:11:56.599Z,20.61
2017-05-14T03:12:24.877Z,20.66
2017-05-14T03:12:53.167Z,20.57
2017-05-14T03:13:21.217Z,20.6
2017-05-14T03:13:49.455Z,20.67
2017-05-14T03:14:17.701Z,20.74
2017-05-14T03:14:45.763Z,20.71
2017-05-14T03:15:13.765Z,20.67
2017-05-14T03:15:41.949Z,20.56
2017-05-14T03:16:10.026Z,20.67
2017-05-14T03:16:37.928Z,20.64
2017-05-14T03:17:06.036Z,20.61
2017-05-14T03:17:34.326Z,20.6
2017-05-14T03:18:02.282Z,20.57
2017-05-14T03:18:30.500Z,20.6
2017-05-14T03:18:58.539Z,20.64
2017-05-14T03:19:26.741Z,20.61
2017-05-14T03:19:54.947Z,20.58
2017-05-14T03:20:22.956Z,20.51
2017-05-14T03:20:51.261Z,20.58
2017-05-14T03:21:19.332Z,20.44
2017-05-14T03:21:47.423Z,20.58
2017-05-14T03:22:15.513Z,20.49
2017-05-14T03:22:43.660Z,20.54
2017-05-14T03:23:11.914Z,20.44
2017-05-14T03:23:40.089Z,20.48
2017-05-14T03:24:08.413Z,20.46
2017-05-14T03:24:36.488Z,20.34
2017-05-14T03:25:04.588Z,20.4
2017-05-14T03:25:32.882Z,20.4
2017-05-14T03:26:01.065Z,20.41
2017-05-14T03:26:29.348Z,20.37
2017-05-14T03:26:57.570Z,20.32
2017-05-14T03:27:25.729Z,20.26
2017-05-14T03:27:53.993Z,20.37
2017-05-14T03:28:21.959Z,20.29
2017-05-14T03:28:50.163Z,20.26
2017-05-14T03:29:18.514Z,20.25
2017-05-14T03:29:46.761Z,20.35
2017-05-14T03:30:14.936Z,20.29
2017-05-14T03:30:43.087Z,20.25
2017-05-14T03:31:11.194Z,20.27
2017-05-14T03:31:39.285Z,20.3
2017-05-14T03:32:07.489Z,20.34
2017-05-14T03:32:35.701Z,20.3
2017-05-14T03:33:03.843Z,20.32
2017-05-14T03:33:32.156Z,20.34
2017-05-14T03:34:00.322Z,20.34
2017-05-14T03:34:28.573Z,20.35
2017-05-14T03:34:56.775Z,20.46
2017-05-14T03:35:24.966Z,20.37
2017-05-14T03:35:53.215Z,20.3
2017-05-14T03:36:21.551Z,20.3
2017-05-14T03:36:49.857Z,20.37
2017-05-14T03:37:18.086Z,20.32
2017-05-14T03:37:46.269Z,20.29
2017-05-14T03:38:14.355Z,20.37
2017-05-14T03:38:42.525Z,20.29
2017-05-14T03:39:10.670Z,20.29
2017-05-14T03:39:38.767Z,20.26
2017-05-14T03:40:06.980Z,20.32
2017-05-14T03:40:35.112Z,20.22
2017-05-14T03:41:03.269Z,20.23
2017-05-14T03:41:31.552Z,20.23
2017-05-14T03:41:59.717Z,20.26
2017-05-14T03:42:28.065Z,20.27
2017-05-14T03:42:56.232Z,20.25
2017-05-14T03:43:24.436Z,20.27
2017-05-14T03:43:52.555Z,20.27
2017-05-14T03:44:20.875Z,20.25
2017-05-14T03:44:49.023Z,20.25
2017-05-14T03:45:17.320Z,20.29
2017-05-14T03:45:45.556Z,20.25
2017-05-14T03:46:13.642Z,20.32
2017-05-14T03:46:41.898Z,20.29
2017-05-14T03:47:10.081Z,20.29
2017-05-14T03:47:38.275Z,20.27
2017-05-14T03:48:06.572Z,20.26
2017-05-14T03:48:34.577Z,20.3
2017-05-14T03:49:02.888Z,20.25
2017-05-14T03:49:31.109Z,20.3
2017-05-14T03:49:59.324Z,20.25
2017-05-14T03:50:27.507Z,20.22
2017-05-14T03:50:55.660Z,20.23
2017-05-14T03:51:23.608Z,20.22
2017-05-14T03:51:51.929Z,20.26
2017-05-14T03:52:20.081Z,20.25
2017-05-14T03:52:48.464Z,20.23
2017-05-14T03:53:16.629Z,20.22
2017-05-14T03:53:44.910Z,20.25
2017-05-14T03:54:13.149Z,20.26
2017-05-14T03:54:41.295Z,20.29
2017-05-14T03:55:09.619Z,20.26
2017-05-14T03:55:37.918Z,20.3
2017-05-14T03:56:06.068Z,20.29
2017-05-14T03:56:34.239Z,20.23
2017-05-14T03:57:02.492Z,20.27
2017-05-14T03:57:30.769Z,20.27
2017-05-14T03:57:58.885Z,20.25
2017-05-14T03:58:27.181Z,20.25
2017-05-14T03:58:55.266Z,20.26
2017-05-14T03:59:23.439Z,20.3
2017-05-14T03:59:51.786Z,20.25
2017-05-14T04:00:20.040Z,20.32
2017-05-14T04:00:48.345Z,20.23
2017-05-14T04:01:16.590Z,20.32
2017-05-14T04:01:44.882Z,20.29
2017-05-14T04:02:12.984Z,20.29
2017-05-14T04:02:41.273Z,20.37
2017-05-14T04:03:09.445Z,20.23
2017-05-14T04:03:37.692Z,20.26
2017-05-14T04:04:05.818Z,20.23
2017-05-14T04:04:33.925Z,20.27
2017-05-14T04:05:02.139Z,20.27
2017-05-14T04:05:30.291Z,20.29
2017-05-14T04:05:58.566Z,20.27
2017-05-14T04:06:26.755Z,20.27
2017-05-14T04:06:54.868Z,20.29
2017-05-14T04:07:22.947Z,20.12
2017-05-14T04:07:51.119Z,20.19
2017-05-14T04:08:19.129Z,20.18
2017-05-14T04:08:47.411Z,20.2
2017-05-14T04:09:15.667Z,20.16
2017-05-14T04:09:43.985Z,20.11
2017-05-14T04:10:12.150Z,20.15
2017-05-14T04:10:40.281Z,20.16
2017-05-14T04:11:08.415Z,20.23
2017-05-14T04:11:36.647Z,20.25
2017-05-14T04:12:04.865Z,20.32
2017-05-14T04:12:33.063Z,20.27
2017-05-14T04:13:01.424Z,20.23
2017-05-14T04:13:29.675Z,20.27
2017-05-14T04:13:57.811Z,20.34
2017-05-14T04:14:25.974Z,20.37
2017-05-14T04:14:54.369Z,20.29
2017-05-14T04:15:22.342Z,20.4
2017-05-14T04:15:50.582Z,20.35
2017-05-14T04:16:18.909Z,20.37
2017-05-14T04:16:47.096Z,20.3
2017-05-14T04:17:15.163Z,20.35
2017-05-14T04:17:43.500Z,20.37
2017-05-14T04:18:11.749Z,20.38
2017-05-14T04:18:39.929Z,20.4
2017-05-14T04:19:08.203Z,20.3
2017-05-14T04:19:36.512Z,20.34
2017-05-14T04:20:04.745Z,20.29
2017-05-14T04:20:32.968Z,20.38
2017-05-14T04:21:01.138Z,20.37
2017-05-14T04:21:29.228Z,20.29
2017-05-14T04:21:57.468Z,20.3
2017-05-14T04:22:25.526Z,20.4
2017-05-14T04:22:53.671Z,20.38
2017-05-14T04:23:21.885Z,20.34
2017-05-14T04:23:50.075Z,20.4
2017-05-14T04:24:18.279Z,20.34
2017-05-14T04:24:46.323Z,20.34
2017-05-14T04:25:14.709Z,20.37
2017-05-14T04:25:42.983Z,20.38
2017-05-14T04:26:11.237Z,20.34
2017-05-14T04:26:39.431Z,20.38
2017-05-14T04:27:07.523Z,20.35
2017-05-14T04:27:35.614Z,20.3
2017-05-14T04:28:03.872Z,20.38
2017-05-14T04:28:32.192Z,20.35
2017-05-14T04:29:00.361Z,20.34
2017-05-14T04:29:28.509Z,20.26
2017-05-14T04:29:56.805Z,20.32
2017-05-14T04:30:25.063Z,20.35
2017-05-14T04:30:53.269Z,20.34
2017-05-14T04:31:21.426Z,20.42
2017-05-14T04:31:49.391Z,20.34
2017-05-14T04:32:17.595Z,20.4
2017-05-14T04:32:45.723Z,20.23
2017-05-14T04:33:13.977Z,20.34
2017-05-14T04:33:42.243Z,20.3
2017-05-14T04:34:10.371Z,20.3
2017-05-14T04:34:38.588Z,20.35
2017-05-14T04:35:06.799Z,20.29
2017-05-14T04:35:35.071Z,20.41
2017-05-14T04:36:03.249Z,20.41
2017-05-14T04:36:31.507Z,20.4
2017-05-14T04:36:59.822Z,20.4
2017-05-14T04:37:27.897Z,20.4
2017-05-14T04:37:56.204Z,20.38
2017-05-14T04:38:24.314Z,20.41
2017-05-14T04:38:52.593Z,20.35
2017-05-14T04:39:20.741Z,20.37
2017-05-14T04:39:49.026Z,20.34
2017-05-14T04:40:17.366Z,20.38
2017-05-14T04:40:45.627Z,20.32
2017-05-14T04:41:13.887Z,20.34
2017-05-14T04:41:42.033Z,20.4
2017-05-14T04:42:10.246Z,20.35
2017-05-14T04:42:38.581Z,20.4
2017-05-14T04:43:06.896Z,20.44
2017-05-14T04:43:34.832Z,20.41
2017-05-14T04:44:03.114Z,20.32
2017-05-14T04:44:31.355Z,20.32
2017-05-14T04:44:59.345Z,20.49
2017-05-14T04:45:27.597Z,20.32
2017-05-14T04:45:55.806Z,20.49
2017-05-14T04:46:23.914Z,20.49
2017-05-14T04:46:52.017Z,20.49
2017-05-14T04:47:20.202Z,20.51
2017-05-14T04:47:48.281Z,20.49
2017-05-14T04:48:16.565Z,20.48
2017-05-14T04:48:44.723Z,20.48
2017-05-14T04:49:12.837Z,20.42
2017-05-14T04:49:41.062Z,20.51
2017-05-14T04:50:09.255Z,20.49
2017-05-14T04:50:37.636Z,20.53
2017-05-14T04:51:05.880Z,20.53
2017-05-14T04:51:34.045Z,20.42
2017-05-14T04:52:02.137Z,20.51
2017-05-14T04:52:30.234Z,20.51
2017-05-14T04:52:58.414Z,20.49
2017-05-14T04:53:26.595Z,20.48
2017-05-14T04:53:54.652Z,20.34
2017-05-14T04:54:22.842Z,20.4
2017-05-14T04:54:51.085Z,20.41
2017-05-14T04:55:19.388Z,20.35
2017-05-14T04:55:47.641Z,20.44
2017-05-14T04:56:15.851Z,20.34
2017-05-14T04:56:43.872Z,20.46
2017-05-14T04:57:12.095Z,20.34
2017-05-14T04:57:40.271Z,20.46
2017-05-14T04:58:08.525Z,20.48
2017-05-14T04:58:36.551Z,20.41
2017-05-14T04:59:04.731Z,20.48
2017-05-14T04:59:33.022Z,20.46
2017-05-14T05:00:01.290Z,20.51
2017-05-14T05:00:29.645Z,20.53
2017-05-14T05:00:57.810Z,20.46
2017-05-14T05:01:25.784Z,20.6
2017-05-14T05:01:54.079Z,20.51
2017-05-14T05:02:22.310Z,20.42
2017-05-14T05:02:50.586Z,20.49
2017-05-14T05:03:18.842Z,20.44
2017-05-14T05:03:46.941Z,20.44
2017-05-14T05:04:15.045Z,20.44
2017-05-14T05:04:43.158Z,20.44
2017-05-14T05:05:11.321Z,20.46
2017-05-14T05:05:39.646Z,20.49
2017-05-14T05:06:07.912Z,20.48
2017-05-14T05:06:35.999Z,20.48
2017-05-14T05:07:04.242Z,20.54
2017-05-14T05:07:32.374Z,20.42
2017-05-14T05:08:00.659Z,20.4
2017-05-14T05:08:28.824Z,20.48
2017-05-14T05:08:57.101Z,20.46
2017-05-14T05:09:25.372Z,20.56
2017-05-14T05:09:53.446Z,20.46
2017-05-14T05:10:21.576Z,20.44
2017-05-14T05:10:49.856Z,20.51
2017-05-14T05:11:18.179Z,20.41
2017-05-14T05:11:46.421Z,20.42
2017-05-14T05:12:14.711Z,20.42
2017-05-14T05:12:43.006Z,20.51
2017-05-14T05:13:11.249Z,20.48
2017-05-14T05:13:39.425Z,20.53
2017-05-14T05:14:07.650Z,20.46
2017-05-14T05:14:35.871Z,20.46
2017-05-14T05:15:04.184Z,20.48
2017-05-14T05:15:32.426Z,20.49
2017-05-14T05:16:00.808Z,20.34
2017-05-14T05:16:29.060Z,20.46
2017-05-14T05:16:57.298Z,20.38
2017-05-14T05:17:25.472Z,20.48
2017-05-14T05:17:53.646Z,20.44
2017-05-14T05:18:21.806Z,20.48
2017-05-14T05:18:49.954Z,20.44
2017-05-14T05:19:17.972Z,20.44
2017-05-14T05:19:46.147Z,20.49
2017-05-14T05:20:14.325Z,20.49
2017-05-14T05:20:42.664Z,20.48
2017-05-14T05:21:10.775Z,20.49
2017-05-14T05:21:38.995Z,20.49
2017-05-14T05:22:07.162Z,20.48
2017-05-14T05:22:35.289Z,20.48
2017-05-14T05:23:03.529Z,20.49
2017-05-14T05:23:31.686Z,20.51
2017-05-14T05:23:59.941Z,20.42
2017-05-14T05:24:28.194Z,20.49
2017-05-14T05:24:56.455Z,20.46
2017-05-14T05:25:24.717Z,20.38
2017-05-14T05:25:53.108Z,20.46
2017-05-14T05:26:21.413Z,20.49
2017-05-14T05:26:49.690Z,20.51
2017-05-14T05:27:17.850Z,20.49
2017-05-14T05:27:46.069Z,20.48
2017-05-14T05:28:14.351Z,20.53
2017-05-14T05:28:42.500Z,20.42
2017-05-14T05:29:10.765Z,20.46
2017-05-14T05:29:39.049Z,20.48
2017-05-14T05:30:07.244Z,20.48
2017-05-14T05:30:35.541Z,20.48
2017-05-14T05:31:03.666Z,20.44
2017-05-14T05:31:31.966Z,20.51
2017-05-14T05:32:00.192Z,20.56
2017-05-14T05:32:28.378Z,20.54
2017-05-14T05:32:56.590Z,20.56
2017-05-14T05:33:24.817Z,20.56
2017-05-14T05:33:52.908Z,20.6
2017-05-14T05:34:21.017Z,20.54
2017-05-14T05:34:49.224Z,20.57
2017-05-14T05:35:17.493Z,20.58
2017-05-14T05:35:45.590Z,20.51
2017-05-14T05:36:13.713Z,20.54
2017-05-14T05:36:41.886Z,20.63
2017-05-14T05:37:09.981Z,20.61
2017-05-14T05:37:38.191Z,20.61
2017-05-14T05:38:06.208Z,20.61
2017-05-14T05:38:34.378Z,20.57
2017-05-14T05:39:02.524Z,20.54
2017-05-14T05:39:30.622Z,20.58
2017-05-14T05:39:58.807Z,20.61
2017-05-14T05:40:27.024Z,20.58
2017-05-14T05:40:55.096Z,20.57
2017-05-14T05:41:23.512Z,20.58
2017-05-14T05:41:51.786Z,20.61
2017-05-14T05:42:20.001Z,20.63
2017-05-14T05:42:48.125Z,20.64
2017-05-14T05:43:16.489Z,20.68
2017-05-14T05:43:44.672Z,20.72
2017-05-14T05:44:12.775Z,20.81
2017-05-14T05:44:41.045Z,20.75
2017-05-14T05:45:09.207Z,20.76
2017-05-14T05:45:37.420Z,20.79
2017-05-14T05:46:05.628Z,20.76
2017-05-14T05:46:33.912Z,20.76
2017-05-14T05:47:02.084Z,20.86
2017-05-14T05:47:30.202Z,20.82
2017-05-14T05:47:58.475Z,20.91
2017-05-14T05:48:26.697Z,20.9
2017-05-14T05:48:54.882Z,20.85
2017-05-14T05:49:23.087Z,20.86
2017-05-14T05:49:51.393Z,20.97
2017-05-14T05:50:19.609Z,20.93
2017-05-14T05:50:47.797Z,20.91
2017-05-14T05:51:16.007Z,20.96
2017-05-14T05:51:44.290Z,21.04
2017-05-14T05:52:12.551Z,21.03
2017-05-14T05:52:40.783Z,20.98
2017-05-14T05:53:08.955Z,21
2017-05-14T05:53:37.184Z,21.09
2017-05-14T05:54:05.360Z,21.11
2017-05-14T05:54:33.422Z,21.13
2017-05-14T05:55:01.514Z,21.08
2017-05-14T05:55:29.751Z,21.11
2017-05-14T05:55:57.831Z,21.09
2017-05-14T05:56:26.050Z,21.09
2017-05-14T05:56:54.339Z,21
2017-05-14T05:57:22.588Z,21
2017-05-14T05:57:50.994Z,20.97
2017-05-14T05:58:19.192Z,21.03
2017-05-14T05:58:47.481Z,21.03
2017-05-14T05:59:15.724Z,21.03
2017-05-14T05:59:44.024Z,21.06
2017-05-14T06:00:12.316Z,21
2017-05-14T06:00:40.494Z,21.01
2017-05-14T06:01:08.626Z,21.06
2017-05-14T06:01:36.965Z,21.01
2017-05-14T06:02:05.032Z,21.03
2017-05-14T06:02:33.364Z,21.01
2017-05-14T06:03:01.521Z,21.01
2017-05-14T06:03:29.797Z,21.03
2017-05-14T06:03:57.835Z,21.03
2017-05-14T06:04:26.105Z,20.98